Accueil
METAR-TAF:

METAR-TAF

Aéroports :

Auburn/Lewiston Municipal Airport

Auburn / Lewiston, Maine, États-Unis

latitude: 44-03N, longitude: 070-17W, altitude: 88 m

Observation

Le bulletin a été fait il y a 1 heure et 18 minutes, à 12:56 UTC
Vent 10 kt de nord/nord-ouest avec des rafales jusqu'à 15 kt
Température 11°C
Humidité 50%
Pression 1021 hPa
Visibilité: 16.1 km
Ciel clair

METAR: KLEW 011256Z AUTO 33010G15KT 10SM CLR 11/01 A3014 RMK AO2 SLP214 T01060006

Heure: 10:14 (14:14 UTC)


TAF: absent

Observations et prévisions météorologiques de plus de 4000 aéroports (messages METAR et TAF).

Les stations disponibles sont représentées par des disques jaunes et rouges sur la carte.

Passer la souris dessus pour voir le nom de la station.

Cliquer dessus pour voir les observations et prévisions météorologiques.

Pour changer de carte: cliquez sur les boutons verts avec une croix noire pour zoomer, sur le bouton vert avec un tiret pour effectuer un zoom arrière, ou sur les flèches vertes pour les cartes adjacentes.


METAR-TAF: